메인 페이지
METAR-TAF:

METAR-TAF

공항 :

Gullfaks, 노르웨이

위도: 61-02N, 경도: 002-02E, 고도: 10m

현재 날씨관측

예보는 23분 전, 15:50시(UTC)에 발표되었습니다.
남서20kt
온도 11°C
습도 87%
기압 1015 hPa
시정 10km 이상
고도 1000ft 상공 구름 조금
고도 4500ft 상공 흐림

METAR: ENGC 201550Z 23020KT 9999 FEW010 OVC045 11/09 Q1015 W10/S5

시각: 18:13 (16:13 UTC)

예보

예보는 2 시간 13분 전, 14:00시(UTC)에 발표되었습니다.
예보 대상 시간: 20일 15시부터 21일 15시까지 (UTC)
서남서22kt
시정 10km 이상
고도 1500ft 상공 구름 조금
고도 6000ft 상공 구름 보통
일시적
20일 15시부터 21일 09시까지 (UTC)
고도 1200ft 상공 구름 많음
일시적
21일 09시부터 21일 12시까지 (UTC)
시정: 4000m
고도 800ft 상공 구름 많음
약한이슬비, 비, 박무
전환 중
21일 00시부터 21일 02시까지 (UTC)
22kt
전환 중
21일 07시부터 21일 09시까지 (UTC)
32kt

TAF: ENGC 201400Z 2015/2115 25022KT 9999 FEW015 SCT060 TEMPO 2015/2109 BKN012 TEMPO 2109/2112 4000 -DZRA BR BKN008 BECMG 2100/2102 18022KT BECMG 2107/2109 17032KT

4,000개 이상의 공항 관측 자료 및 예보 (METAR 및 TAF 보고).

지도상에서 검색 가능한 기상관측소가 노란 점과 빨간 점으로 표시되어 있습니다.

기상관측소 명을 보려면 표시 위로 마우스를 이동하세요.

날씨 관측과 예보를 보려면 클릭하세요.

지도 변경 : 확대하려면 엑스 표시가 있는 녹색 버튼, 축소하려면 빼기 표시가 있는 녹색 버튼, 다음 페이지의 지도를 보려면 녹색 화살표를 클릭하세요.


METAR-TAF: